Track Ехтанигов Темир

Time Latitude Longitude Accuracy (66% radius in meters) Altitude (meters) Speed (km/hour) Bearing (degrees) Battery (%) GPS flag
07:06:49 57.205122 60.114495 0 0 0 0 1 delete
07:06:48 57.205114 60.114436 0 0 0 0 1 delete
07:06:47 57.205100 60.114391 0 0 0 0 1 delete
07:06:46 57.205080 60.114370 0 0 0 0 1 delete
07:06:45 57.205058 60.114371 0 0 0 0 1 delete
07:06:44 57.205037 60.114385 0 0 0 0 1 delete
07:06:43 57.205019 60.114393 0 0 0 0 1 delete
07:06:42 57.205001 60.114391 0 0 0 0 1 delete
07:06:41 57.204990 60.114384 0 0 0 0 1 delete
07:06:40 57.204983 60.114377 0 0 0 0 1 delete
07:06:39 57.204983 60.114374 0 0 0 0 1 delete
07:06:38 57.204989 60.114371 0 0 0 0 1 delete
07:06:37 57.204998 60.114368 0 0 0 0 1 delete
07:06:36 57.205010 60.114365 0 0 0 0 1 delete
07:06:35 57.205010 60.114364 0 0 0 0 1 delete
07:06:34 57.205014 60.114359 0 0 0 0 1 delete
07:06:33 57.205025 60.114357 0 0 0 0 1 delete
07:06:32 57.205052 60.114360 0 0 0 0 1 delete
07:06:31 57.205083 60.114369 0 0 0 0 1 delete
07:06:30 57.205112 60.114380 0 0 0 0 1 delete
07:06:29 57.205139 60.114399 0 0 0 0 1 delete
07:06:28 57.205159 60.114430 0 0 0 0 1 delete
07:06:27 57.205178 60.114482 0 0 0 0 1 delete
07:06:26 57.205191 60.114560 0 0 0 0 1 delete
07:06:25 57.205203 60.114653 0 0 0 0 1 delete
07:06:24 57.205210 60.114748 0 0 0 0 1 delete
07:06:23 57.205218 60.114825 0 0 0 0 1 delete
07:06:22 57.205230 60.114896 0 0 0 0 1 delete
07:06:21 57.205245 60.114965 0 0 0 0 1 delete
07:06:20 57.205263 60.115031 0 0 0 0 1 delete
07:06:19 57.205278 60.115085 0 0 0 0 1 delete
07:06:18 57.205290 60.115131 0 0 0 0 1 delete
07:06:17 57.205301 60.115184 0 0 0 0 1 delete
07:06:16 57.205315 60.115228 0 0 0 0 1 delete
07:06:15 57.205335 60.115249 0 0 0 0 1 delete
07:06:14 57.205359 60.115240 0 0 0 0 1 delete
07:06:13 57.205385 60.115216 0 0 0 0 1 delete
07:06:12 57.205410 60.115188 0 0 0 0 1 delete
07:06:11 57.205436 60.115158 0 0 0 0 1 delete
07:06:10 57.205461 60.115129 0 0 0 0 1 delete
07:06:09 57.205485 60.115100 0 0 0 0 1 delete
07:06:08 57.205510 60.115068 0 0 0 0 1 delete
07:06:07 57.205534 60.115031 0 0 0 0 1 delete
07:06:06 57.205557 60.114989 0 0 0 0 1 delete
07:06:05 57.205579 60.114945 0 0 0 0 1 delete
07:06:04 57.205602 60.114900 0 0 0 0 1 delete
07:06:03 57.205623 60.114854 0 0 0 0 1 delete
07:06:02 57.205644 60.114806 0 0 0 0 1 delete
07:06:01 57.205667 60.114754 0 0 0 0 1 delete
07:06:00 57.205690 60.114705 0 0 0 0 1 delete